Time;durP1;ratioP1;P1;durP2;ratioP2;P2;SDS_P1;SDS_P2;PMS_P1;PMS_P2;Temp;Humidity;BMP_temperature;BMP_pressure;BME280_temperature;BME280_humidity;BME280_pressure;Samples;Min_cycle;Max_cycle;Signal;HPM_P1;HPM_P2
2021/10/01 00:00:23;;;;;;;;;3.00;3.00;;;;;14.57;43.93;101650.38;5002840;28;46148;-47
2021/10/01 00:02:49;;;;;;;;;2.75;2.00;;;;;14.55;44.26;101646.88;5001898;28;45348;-47
2021/10/01 00:05:14;;;;;;;;;5.00;3.75;;;;;14.48;44.16;101632.88;5002947;28;45439;-46
2021/10/01 00:07:40;;;;;;;;;2.25;2.25;;;;;14.46;44.34;101634.66;5002829;28;45405;-47
2021/10/01 00:10:06;;;;;;;;;3.00;3.00;;;;;14.43;44.04;101630.31;5002710;28;45907;-46
2021/10/01 00:12:32;;;;;;;;;2.00;2.00;;;;;14.38;44.08;101623.38;5002842;28;45282;-48
2021/10/01 00:14:57;;;;;;;;;4.00;2.00;;;;;14.37;44.33;101621.59;5002896;28;45369;-47
2021/10/01 00:17:23;;;;;;;;;1.75;1.75;;;;;14.33;44.07;101633.13;5003088;28;45322;-46
2021/10/01 00:19:48;;;;;;;;;1.75;1.75;;;;;14.30;44.09;101631.38;5002560;28;45491;-51
2021/10/01 00:22:14;;;;;;;;;4.75;3.00;;;;;14.27;43.92;101631.44;5002982;28;45270;-48
2021/10/01 00:24:40;;;;;;;;;2.00;2.00;;;;;14.26;44.25;101634.97;5002581;28;45294;-52
2021/10/01 00:27:10;;;;;;;;;3.00;3.00;;;;;14.22;44.31;101631.50;5003027;28;45223;-50
2021/10/01 00:29:36;;;;;;;;;4.00;2.00;;;;;14.16;44.48;101621.03;5002712;28;47121;-47
2021/10/01 00:32:01;;;;;;;;;2.00;2.00;;;;;14.17;44.10;101624.56;5002724;28;45310;-51
2021/10/01 00:34:27;;;;;;;;;2.00;2.00;;;;;14.13;44.75;101618.44;5002515;28;45300;-53
2021/10/01 00:36:52;;;;;;;;;2.25;1.75;;;;;14.11;44.70;101613.19;5002848;28;45448;-50
2021/10/01 00:39:17;;;;;;;;;1.00;1.00;;;;;14.11;44.82;101612.28;5002226;28;45705;-51
2021/10/01 00:41:43;;;;;;;;;1.00;1.00;;;;;14.09;44.21;101611.47;5002807;28;45517;-49
2021/10/01 00:44:08;;;;;;;;;1.25;1.25;;;;;14.08;44.82;101609.72;5002416;28;45233;-47
2021/10/01 00:46:34;;;;;;;;;2.75;2.00;;;;;14.05;44.83;101613.28;5002564;28;45600;-51
2021/10/01 00:48:59;;;;;;;;;4.50;1.50;;;;;14.03;44.57;101608.91;5002313;28;46271;-47
2021/10/01 00:51:26;;;;;;;;;2.00;2.00;;;;;14.01;45.05;101600.97;5002555;28;45198;-51
2021/10/01 00:53:53;;;;;;;;;4.00;1.00;;;;;13.99;44.56;101597.50;5002441;28;45166;-49
2021/10/01 00:56:19;;;;;;;;;2.75;2.00;;;;;13.97;45.25;101597.53;5002329;28;45383;-49
2021/10/01 00:58:45;;;;;;;;;3.75;3.75;;;;;13.95;45.15;101596.69;5001791;28;46013;-51
2021/10/01 01:01:10;;;;;;;;;1.00;1.00;;;;;13.93;44.86;101593.19;5001162;28;45565;-50
2021/10/01 01:03:54;;;;;;;;;2.00;2.00;;;;;13.90;45.23;101592.34;5002381;28;45317;-48
2021/10/01 01:06:44;;;;;;;;;2.50;1.00;;;;;13.88;45.30;101599.44;5002012;28;45305;-50
2021/10/01 01:09:28;;;;;;;;;2.00;2.00;;;;;13.86;45.09;101607.38;5001868;28;45373;-47
2021/10/01 01:11:59;;;;;;;;;4.25;3.00;;;;;13.80;45.31;101608.34;5000679;28;45339;-50
2021/10/01 01:14:36;;;;;;;;;2.00;2.00;;;;;13.77;45.24;101596.94;5001888;28;45274;-49
2021/10/01 01:17:06;;;;;;;;;3.25;2.50;;;;;13.76;45.57;101595.19;5002106;28;45325;-51
2021/10/01 01:20:06;;;;;;;;;3.00;2.00;;;;;13.74;45.44;101591.72;5001497;28;47144;-51
2021/10/01 01:22:50;;;;;;;;;2.00;2.00;;;;;13.69;45.55;101586.47;5001525;28;45254;-51
2021/10/01 01:25:54;;;;;;;;;4.00;2.25;;;;;13.68;45.65;101578.59;5002145;28;45294;-48
2021/10/01 01:28:35;;;;;;;;;1.50;1.50;;;;;13.65;45.50;101571.56;4998126;28;45490;-48
2021/10/01 01:31:07;;;;;;;;;2.50;2.25;;;;;13.67;45.46;101579.47;5021315;28;46977;-47
2021/10/01 01:33:37;;;;;;;;;2.00;2.00;;;;;13.64;45.44;101578.59;5021806;28;45234;-48
2021/10/01 01:36:03;;;;;;;;;3.50;2.50;;;;;13.62;45.60;101567.22;5021502;28;45251;-50
2021/10/01 01:38:38;;;;;;;;;2.00;2.00;;;;;13.62;45.80;101566.31;5021350;28;45355;-52
2021/10/01 01:41:05;;;;;;;;;2.75;2.00;;;;;13.58;45.48;101562.84;5021250;28;47093;-50
2021/10/01 01:43:33;;;;;;;;;1.75;1.75;;;;;13.58;45.89;101552.28;5021315;28;45401;-51
2021/10/01 01:46:00;;;;;;;;;3.00;3.00;;;;;13.55;45.78;101560.25;5021515;28;45170;-50
2021/10/01 01:48:27;;;;;;;;;2.50;2.00;;;;;13.53;45.68;101556.75;5003605;28;45274;-52
2021/10/01 01:50:55;;;;;;;;;3.25;2.00;;;;;13.54;46.02;101555.00;5019907;28;45922;-50
2021/10/01 01:53:21;;;;;;;;;5.00;3.00;;;;;13.52;45.96;101543.56;5021070;28;45329;-50
2021/10/01 01:55:48;;;;;;;;;3.25;2.50;;;;;13.50;45.98;101551.53;5021352;28;45296;-48
2021/10/01 01:58:15;;;;;;;;;3.75;3.00;;;;;13.48;45.79;101543.63;5021034;28;45257;-49
2021/10/01 02:00:41;;;;;;;;;1.00;1.00;;;;;13.45;46.04;101537.53;5021178;28;46171;-49
2021/10/01 02:03:07;;;;;;;;;2.00;2.00;;;;;13.44;45.91;101534.00;5020928;28;45245;-50
2021/10/01 02:05:33;;;;;;;;;2.75;1.00;;;;;13.45;46.01;101532.25;5009079;28;45375;-48
2021/10/01 02:08:00;;;;;;;;;4.25;2.75;;;;;13.41;45.98;101530.50;5000875;28;45559;-51
2021/10/01 02:10:28;;;;;;;;;3.00;3.00;;;;;13.39;46.15;101521.75;5000940;28;46514;-49
2021/10/01 02:12:57;;;;;;;;;3.75;3.75;;;;;13.39;45.95;101527.03;4999405;28;45283;-50
2021/10/01 02:15:23;;;;;;;;;2.75;2.00;;;;;13.37;46.10;101523.50;5001509;28;45458;-51
2021/10/01 02:17:51;;;;;;;;;3.00;3.00;;;;;13.35;46.56;101525.31;5000876;28;45697;-49
2021/10/01 02:20:18;;;;;;;;;2.00;2.00;;;;;13.31;46.17;101513.91;5000949;28;45558;-48
2021/10/01 02:22:44;;;;;;;;;2.50;2.50;;;;;13.31;46.43;101509.50;4999383;28;45385;-50
2021/10/01 02:28:02;;;;;;;;;2.00;2.00;;;;;13.28;46.32;101500.75;4999538;28;45601;-45
2021/10/01 02:30:30;;;;;;;;;3.00;2.75;;;;;13.25;46.36;101504.28;5000941;28;45521;-50
2021/10/01 02:32:59;;;;;;;;;4.00;3.50;;;;;13.22;46.80;101485.88;4999452;28;45272;-50
2021/10/01 02:35:25;;;;;;;;;2.75;2.25;;;;;13.19;46.68;101501.72;4999600;28;45357;-50
2021/10/01 02:37:51;;;;;;;;;2.00;2.00;;;;;13.19;46.78;101493.81;5000505;28;45602;-48
2021/10/01 02:40:19;;;;;;;;;2.75;2.00;;;;;13.17;46.75;101490.34;5000633;28;46100;-50
2021/10/01 02:42:44;;;;;;;;;2.00;2.00;;;;;13.13;46.59;101484.22;5000635;28;45266;-48
2021/10/01 02:45:10;;;;;;;;;2.00;2.00;;;;;13.13;46.89;101488.63;5000878;28;45322;-50
2021/10/01 02:47:36;;;;;;;;;4.00;2.00;;;;;13.10;47.05;101484.25;5000498;28;45269;-48
2021/10/01 02:50:14;;;;;;;;;4.25;3.25;;;;;13.05;47.03;101477.31;5000504;28;45316;-49
2021/10/01 02:53:12;;;;;;;;;2.25;2.25;;;;;13.04;46.94;101476.41;4996757;28;45367;-50
2021/10/01 02:55:46;;;;;;;;;1.00;1.00;;;;;13.01;47.31;101474.69;5020345;28;45432;-51
2021/10/01 02:58:25;;;;;;;;;2.25;2.00;;;;;12.97;47.28;101470.34;5020250;28;45297;-50
2021/10/01 03:00:52;;;;;;;;;3.00;3.00;;;;;12.93;47.14;101470.41;5020127;28;46063;-48
2021/10/01 03:03:25;;;;;;;;;2.00;2.00;;;;;12.91;47.04;101466.94;5020139;28;45289;-51
2021/10/01 03:05:52;;;;;;;;;4.00;2.50;;;;;12.90;47.13;101460.75;5005261;28;45325;-51
2021/10/01 03:08:19;;;;;;;;;5.00;2.50;;;;;12.87;47.10;101449.38;4999986;28;45543;-51
2021/10/01 03:10:48;;;;;;;;;3.00;3.00;;;;;12.88;47.20;101452.00;5000277;28;45388;-49
2021/10/01 03:13:18;;;;;;;;;2.50;2.50;;;;;12.85;47.62;101459.94;5000036;28;45281;-49
2021/10/01 03:15:44;;;;;;;;;2.00;2.00;;;;;12.85;47.36;101459.94;5000297;28;45507;-49
2021/10/01 03:18:10;;;;;;;;;1.50;1.50;;;;;12.82;47.52;101455.59;4999941;28;45318;-51
2021/10/01 03:20:37;;;;;;;;;2.50;2.25;;;;;12.80;47.54;101459.13;5000008;28;46123;-50
2021/10/01 03:23:03;;;;;;;;;4.00;2.00;;;;;12.76;47.35;101444.25;4998817;28;45377;-49
2021/10/01 03:25:28;;;;;;;;;4.00;3.00;;;;;12.74;47.76;101451.28;5000175;28;45295;-51
2021/10/01 03:27:54;;;;;;;;;3.00;1.25;;;;;12.74;47.73;101456.56;4999978;28;45161;-49
2021/10/01 03:30:20;;;;;;;;;2.75;2.75;;;;;12.71;47.59;101444.28;4999995;28;45286;-49
2021/10/01 03:32:46;;;;;;;;;2.00;2.00;;;;;12.68;47.99;101442.56;5000008;28;45393;-51
2021/10/01 03:35:12;;;;;;;;;1.75;1.75;;;;;12.68;47.91;101432.00;5000003;28;45416;-49
2021/10/01 03:37:38;;;;;;;;;3.50;2.50;;;;;12.66;48.00;101439.06;4999506;28;45527;-51
2021/10/01 03:40:07;;;;;;;;;3.00;3.00;;;;;12.65;47.86;101441.72;4999764;28;46126;-49
2021/10/01 03:42:32;;;;;;;;;2.75;2.75;;;;;12.62;48.13;101437.34;4999637;28;45392;-48
2021/10/01 03:45:00;;;;;;;;;5.50;4.25;;;;;12.58;48.21;101433.03;4999977;28;45279;-46
2021/10/01 03:47:25;;;;;;;;;2.00;2.00;;;;;12.59;48.08;101441.78;4999752;28;45314;-46
2021/10/01 03:49:51;;;;;;;;;2.00;2.00;;;;;12.57;48.10;101431.28;4999626;28;45404;-50
2021/10/01 03:52:17;;;;;;;;;3.75;3.00;;;;;12.55;48.17;101432.19;4999373;28;45453;-49
2021/10/01 03:54:45;;;;;;;;;3.75;2.75;;;;;12.49;48.27;101423.44;5000054;28;45522;-50
2021/10/01 03:57:11;;;;;;;;;3.00;3.00;;;;;12.49;48.36;101417.28;4999569;28;45270;-52
2021/10/01 03:59:37;;;;;;;;;4.75;3.25;;;;;12.48;48.12;101415.56;4999449;28;46898;-51
2021/10/01 04:02:02;;;;;;;;;3.00;3.00;;;;;12.45;48.26;101412.94;4999326;28;45330;-49
2021/10/01 04:04:28;;;;;;;;;2.00;2.00;;;;;12.41;48.56;101409.47;4999463;28;45274;-48
2021/10/01 04:06:54;;;;;;;;;2.25;2.25;;;;;12.42;48.73;101413.00;4999201;28;45238;-49
2021/10/01 04:09:19;;;;;;;;;2.50;1.00;;;;;12.39;48.55;101411.28;4999363;28;45243;-48
2021/10/01 04:11:45;;;;;;;;;2.50;1.00;;;;;12.34;48.52;101411.31;4999387;28;45392;-49
2021/10/01 04:14:10;;;;;;;;;2.25;2.25;;;;;12.31;48.77;101408.72;4999685;28;45172;-49
2021/10/01 04:16:36;;;;;;;;;2.00;2.00;;;;;12.29;48.58;101414.88;4999323;28;45225;-49
2021/10/01 04:19:01;;;;;;;;;3.50;3.50;;;;;12.29;48.62;101405.22;4999462;28;45175;-50
2021/10/01 04:21:27;;;;;;;;;3.75;2.00;;;;;12.26;48.75;101407.00;4999323;28;45526;-48
2021/10/01 04:23:53;;;;;;;;;4.75;3.50;;;;;12.25;48.76;101405.25;4999387;28;45281;-52
2021/10/01 04:26:18;;;;;;;;;2.50;2.00;;;;;12.22;48.87;101405.31;4999047;28;45844;-48
2021/10/01 04:28:44;;;;;;;;;2.25;2.00;;;;;12.18;48.98;101400.06;4999359;28;45390;-50
2021/10/01 04:31:10;;;;;;;;;3.75;2.75;;;;;12.18;48.86;101401.81;4999196;28;45380;-47
2021/10/01 04:33:36;;;;;;;;;3.25;2.75;;;;;12.17;49.13;101405.34;4999323;28;45445;-46
2021/10/01 04:36:03;;;;;;;;;2.75;2.75;;;;;12.14;49.10;101393.06;5002476;28;45325;-51
2021/10/01 04:38:29;;;;;;;;;3.25;2.50;;;;;12.13;49.11;101393.97;5002207;28;47622;-47
2021/10/01 04:40:54;;;;;;;;;6.75;3.75;;;;;12.12;48.93;101386.94;5002358;28;45258;-48
2021/10/01 04:43:20;;;;;;;;;4.50;3.75;;;;;12.09;49.15;101386.97;5002440;28;45282;-47
2021/10/01 04:45:45;;;;;;;;;4.00;4.00;;;;;12.08;49.41;101390.50;5002490;28;45207;-48
2021/10/01 04:48:10;;;;;;;;;2.00;0.00;;;;;12.07;49.23;101385.25;5002568;28;45182;-50
2021/10/01 04:50:37;;;;;;;;;3.50;3.00;;;;;12.02;49.27;101386.19;5002330;28;45218;-50
2021/10/01 04:53:03;;;;;;;;;3.50;3.00;;;;;12.01;49.37;101388.81;5002371;28;45396;-49
2021/10/01 04:55:29;;;;;;;;;1.75;1.75;;;;;12.00;49.48;101387.94;5002107;28;45443;-46
2021/10/01 04:57:54;;;;;;;;;2.75;2.75;;;;;12.00;49.41;101387.94;5002098;28;45962;-49
2021/10/01 05:00:21;;;;;;;;;5.50;4.75;;;;;11.99;49.50;101382.69;5002140;28;45958;-49
2021/10/01 05:02:46;;;;;;;;;4.00;4.00;;;;;11.97;49.47;101387.97;5002654;28;45415;-50
2021/10/01 05:05:12;;;;;;;;;4.00;3.50;;;;;11.96;49.78;101387.97;5001815;28;45372;-49
2021/10/01 05:07:37;;;;;;;;;2.75;2.75;;;;;11.95;49.64;101395.00;5002248;28;45422;-50
2021/10/01 05:10:07;;;;;;;;;2.50;2.50;;;;;11.93;49.75;101391.50;5002135;28;45266;-49
2021/10/01 05:12:32;;;;;;;;;4.25;3.25;;;;;11.93;49.67;101390.63;5000955;28;45268;-49
2021/10/01 05:14:58;;;;;;;;;4.25;4.00;;;;;11.91;49.75;101393.28;5001984;28;45622;-46
2021/10/01 05:17:23;;;;;;;;;3.50;3.50;;;;;11.92;49.75;101397.63;5002169;28;46030;-47
2021/10/01 05:19:49;;;;;;;;;6.00;4.00;;;;;11.91;49.93;101395.03;5002214;28;45417;-48
2021/10/01 05:22:15;;;;;;;;;4.00;3.00;;;;;11.92;49.95;101397.63;5002062;28;45317;-50
2021/10/01 05:24:42;;;;;;;;;3.50;3.50;;;;;11.89;49.80;101388.91;5001706;28;45278;-47
2021/10/01 05:27:07;;;;;;;;;3.00;3.00;;;;;11.89;49.76;101381.03;5001847;28;47145;-49
2021/10/01 05:29:33;;;;;;;;;5.00;5.00;;;;;11.84;50.09;101387.19;5001767;28;45270;-47
2021/10/01 05:31:58;;;;;;;;;2.00;2.00;;;;;11.82;50.10;101383.72;5002065;28;45220;-46
2021/10/01 05:34:23;;;;;;;;;3.25;3.25;;;;;11.82;50.02;101388.97;5001568;28;45532;-47
2021/10/01 05:36:49;;;;;;;;;4.00;4.00;;;;;11.80;50.07;101387.25;5001532;28;45347;-48
2021/10/01 05:39:14;;;;;;;;;2.00;2.00;;;;;11.78;50.22;101387.22;5001320;28;45214;-47
2021/10/01 05:41:40;;;;;;;;;2.00;2.00;;;;;11.77;50.28;101395.16;5001832;28;45313;-46
2021/10/01 05:44:05;;;;;;;;;5.00;4.00;;;;;11.70;50.34;101389.94;5001366;28;45310;-46
2021/10/01 05:46:31;;;;;;;;;3.50;3.00;;;;;11.71;50.32;101391.69;5000782;28;45319;-45
2021/10/01 05:48:59;;;;;;;;;3.75;3.75;;;;;11.70;50.33;101384.66;5001512;28;45219;-49
2021/10/01 05:51:25;;;;;;;;;3.25;2.25;;;;;11.68;50.50;101386.47;5001647;28;45317;-50
2021/10/01 05:54:11;;;;;;;;;4.25;4.00;;;;;11.69;50.43;101385.56;5001141;28;45341;-49
2021/10/01 05:56:36;;;;;;;;;4.00;2.75;;;;;11.68;50.44;101381.19;5001114;28;45907;-49
2021/10/01 05:59:01;;;;;;;;;3.00;3.00;;;;;11.66;50.42;101380.31;4997774;28;45511;-52
2021/10/01 06:01:28;;;;;;;;;3.00;3.00;;;;;11.67;50.63;101379.44;5001509;28;45522;-48
2021/10/01 06:03:53;;;;;;;;;5.25;5.00;;;;;11.66;50.66;101375.06;4999545;28;45539;-50
2021/10/01 06:06:19;;;;;;;;;5.00;3.75;;;;;11.67;50.67;101368.03;4999988;28;45235;-50
2021/10/01 06:08:45;;;;;;;;;4.00;4.00;;;;;11.67;51.02;101365.38;5000635;28;45412;-48
2021/10/01 06:11:10;;;;;;;;;5.75;3.25;;;;;11.69;50.73;101363.63;5001123;28;45509;-50
2021/10/01 06:13:37;;;;;;;;;3.50;2.75;;;;;11.74;50.67;101368.88;5000636;28;45334;-52
2021/10/01 06:16:03;;;;;;;;;4.00;4.00;;;;;11.72;50.70;101363.59;5000378;28;46179;-52
2021/10/01 06:18:28;;;;;;;;;3.25;3.00;;;;;11.74;50.68;101364.47;5000793;28;45329;-50
2021/10/01 06:20:54;;;;;;;;;5.75;4.50;;;;;11.76;50.83;101364.44;5001087;28;45367;-50
2021/10/01 06:23:22;;;;;;;;;5.00;4.00;;;;;11.78;50.89;101367.94;5000528;28;45357;-49
2021/10/01 06:25:48;;;;;;;;;4.00;3.50;;;;;11.77;50.75;101368.81;5000849;28;46224;-51
2021/10/01 06:28:14;;;;;;;;;4.75;3.75;;;;;11.81;50.89;101373.16;5000503;28;46447;-51
2021/10/01 06:30:41;;;;;;;;;2.50;2.50;;;;;11.84;50.85;101370.53;5000916;28;45339;-51
2021/10/01 06:33:07;;;;;;;;;2.00;2.00;;;;;11.86;50.89;101363.47;5000365;28;45412;-49
2021/10/01 06:35:32;;;;;;;;;4.00;3.00;;;;;11.91;50.94;101368.69;5000424;28;46398;-51
2021/10/01 06:37:57;;;;;;;;;2.75;2.75;;;;;11.94;51.00;101371.31;5000223;28;45354;-50
2021/10/01 06:40:23;;;;;;;;;4.00;3.75;;;;;11.95;50.83;101371.28;5000813;28;45623;-50
2021/10/01 06:42:49;;;;;;;;;3.00;3.00;;;;;11.98;51.05;101358.09;4998826;28;45325;-50
2021/10/01 06:45:24;;;;;;;;;4.75;4.50;;;;;12.00;51.04;101364.25;5000074;28;46044;-49
2021/10/01 06:47:56;;;;;;;;;4.00;3.00;;;;;12.04;51.13;101365.09;5000237;28;45385;-53
2021/10/01 08:19:44;;;;;;;;;4.50;4.00;;;;;13.64;52.19;101322.44;5001863;28;45334;-52
2021/10/01 08:22:09;;;;;;;;;4.50;4.00;;;;;13.70;52.26;101326.75;5002636;28;45910;-51
2021/10/01 08:24:36;;;;;;;;;6.00;4.00;;;;;13.78;52.12;101330.09;5003951;28;45360;-51
2021/10/01 08:27:03;;;;;;;;;8.00;6.50;;;;;13.85;52.26;101330.88;5004249;28;45310;-52
2021/10/01 08:29:30;;;;;;;;;7.00;4.75;;;;;13.91;52.33;101319.31;5002000;28;45619;-49
2021/10/01 08:32:00;;;;;;;;;4.75;4.75;;;;;13.96;52.43;101317.47;5004249;28;46976;-47
2021/10/01 08:34:27;;;;;;;;;5.00;3.50;;;;;13.99;52.02;101320.06;5003387;28;45334;-50
2021/10/01 08:36:52;;;;;;;;;6.25;4.00;;;;;14.01;52.24;101310.31;5004448;28;45235;-57
2021/10/01 08:39:18;;;;;;;;;4.00;4.00;;;;;14.09;52.25;101323.41;5003038;28;45303;-52
2021/10/01 08:41:44;;;;;;;;;6.00;4.00;;;;;14.16;52.43;101309.13;5003049;28;46413;-52
2021/10/01 08:44:09;;;;;;;;;5.00;3.75;;;;;14.21;52.59;101303.78;5001706;28;45321;-52
2021/10/01 08:46:35;;;;;;;;;3.00;3.00;;;;;14.27;52.08;101301.84;5003325;28;45317;-49
2021/10/01 08:49:03;;;;;;;;;3.75;3.25;;;;;14.38;52.30;101309.56;5003416;28;45490;-53
2021/10/01 08:51:29;;;;;;;;;6.25;5.00;;;;;14.45;52.23;101300.63;5004096;28;46023;-52
2021/10/01 08:53:56;;;;;;;;;5.25;4.25;;;;;14.53;52.03;101300.44;5001595;28;45238;-52
2021/10/01 08:56:24;;;;;;;;;4.25;4.25;;;;;14.61;52.28;101300.28;5004183;28;45241;-49
2021/10/01 08:58:49;;;;;;;;;5.00;5.00;;;;;14.68;52.55;101294.00;4995822;28;45306;-50
2021/10/01 09:01:15;;;;;;;;;6.25;4.00;;;;;14.78;52.03;101295.50;4998773;28;46218;-53
2021/10/01 09:03:41;;;;;;;;;5.75;5.00;;;;;14.85;52.34;101287.44;5002043;28;45297;-51
2021/10/01 09:06:07;;;;;;;;;3.50;2.50;;;;;14.93;52.57;101281.06;5002656;28;45389;-53
2021/10/01 09:08:34;;;;;;;;;3.00;3.00;;;;;15.02;52.35;101290.56;5001415;28;45250;-53
2021/10/01 09:11:06;;;;;;;;;4.75;4.75;;;;;15.08;52.39;101277.19;5002566;28;47102;-52
2021/10/01 09:13:34;;;;;;;;;4.25;3.00;;;;;15.15;51.97;101269.09;5002338;28;45337;-52
2021/10/01 09:16:01;;;;;;;;;6.25;3.75;;;;;15.23;52.07;101269.75;5002135;28;45333;-57
2021/10/01 09:18:28;;;;;;;;;4.75;2.75;;;;;15.30;51.80;101267.84;5001358;28;45515;-52
2021/10/01 09:21:13;;;;;;;;;5.00;3.75;;;;;15.34;52.16;101258.91;5000880;28;47173;-53
2021/10/01 09:23:42;;;;;;;;;2.50;2.50;;;;;15.39;52.39;101262.28;5002272;28;45515;-53
2021/10/01 09:26:17;;;;;;;;;3.00;3.00;;;;;15.46;52.33;101269.16;5003383;28;45369;-47
2021/10/01 09:28:48;;;;;;;;;2.25;2.25;;;;;15.50;52.48;101257.56;5002146;28;45594;-52
2021/10/01 09:31:53;;;;;;;;;2.00;2.00;;;;;15.57;52.28;101267.09;5001408;28;48379;-50
2021/10/01 09:34:24;;;;;;;;;1.50;1.50;;;;;15.61;52.29;101262.59;4967535;28;45334;-48
2021/10/01 09:37:09;;;;;;;;;1.50;1.50;;;;;15.65;52.09;101266.91;4980241;28;45290;-53
2021/10/01 09:39:45;;;;;;;;;2.75;2.75;;;;;15.70;52.07;101258.84;4994416;28;45373;-48
2021/10/01 09:42:16;;;;;;;;;2.00;2.00;;;;;15.77;52.15;101265.69;5002791;28;46282;-52
2021/10/01 09:44:47;;;;;;;;;2.25;1.25;;;;;15.80;52.14;101255.00;5002214;28;45310;-52
2021/10/01 09:47:13;;;;;;;;;1.50;1.00;;;;;15.86;52.11;101249.56;5002389;28;45421;-51
2021/10/01 09:49:42;;;;;;;;;5.00;4.25;;;;;15.91;52.39;101258.25;5002872;28;45512;-50
2021/10/01 09:52:11;;;;;;;;;1.00;1.00;;;;;15.95;52.21;101253.75;5001831;28;46968;-49
2021/10/01 09:54:36;;;;;;;;;5.75;2.00;;;;;16.01;52.11;101252.69;5002678;28;45223;-52
2021/10/01 09:57:07;;;;;;;;;2.25;2.25;;;;;16.06;52.10;101249.00;5000808;28;45408;-48
2021/10/01 09:59:36;;;;;;;;;2.25;1.75;;;;;16.11;52.11;101246.19;4992264;28;45796;-51
2021/10/01 10:02:13;;;;;;;;;5.25;4.00;;;;;16.15;52.32;101242.56;5001077;28;46180;-53
2021/10/01 10:04:43;;;;;;;;;7.50;4.00;;;;;16.21;52.05;101247.69;5000649;28;45513;-51
2021/10/01 10:07:11;;;;;;;;;5.50;3.75;;;;;16.25;51.89;101257.28;4991965;28;45300;-50
2021/10/01 10:09:41;;;;;;;;;2.25;2.00;;;;;16.29;52.25;101250.09;5001746;28;45342;-49
2021/10/01 10:12:11;;;;;;;;;3.50;3.50;;;;;16.33;52.37;101245.59;5000777;28;46199;-51
2021/10/01 10:14:42;;;;;;;;;5.25;4.00;;;;;16.38;52.39;101260.44;5001512;28;45263;-50
2021/10/01 10:17:15;;;;;;;;;3.00;1.75;;;;;16.45;52.13;101255.78;5001104;28;45365;-51
2021/10/01 10:19:41;;;;;;;;;1.75;1.75;;;;;16.50;52.32;101248.59;5000647;28;45321;-49
2021/10/01 10:22:07;;;;;;;;;5.75;2.00;;;;;16.54;52.04;101255.53;5000300;28;47789;-51
2021/10/01 10:24:33;;;;;;;;;2.50;2.00;;;;;16.61;51.89;101255.34;5002343;28;45356;-49
2021/10/01 10:26:59;;;;;;;;;2.25;2.25;;;;;16.65;51.73;101251.66;5002342;28;45238;-49
2021/10/01 10:29:25;;;;;;;;;2.00;2.00;;;;;16.69;52.01;101256.84;5001887;28;45345;-51
2021/10/01 10:31:51;;;;;;;;;2.00;1.50;;;;;16.76;52.03;101254.84;5000656;28;46378;-51
2021/10/01 10:34:19;;;;;;;;;2.00;2.00;;;;;16.79;51.87;101249.47;5001676;28;45326;-53
2021/10/01 10:36:47;;;;;;;;;2.00;0.75;;;;;16.85;52.06;101243.06;5001216;28;45428;-53
2021/10/01 10:39:16;;;;;;;;;3.00;1.00;;;;;16.88;51.55;101241.19;5000166;28;45535;-47
2021/10/01 10:41:43;;;;;;;;;1.00;1.00;;;;;16.93;51.93;101245.50;5002309;28;47120;-51
2021/10/01 10:44:11;;;;;;;;;2.00;2.00;;;;;16.96;51.83;101245.41;5001189;28;45266;-48
2021/10/01 10:46:36;;;;;;;;;1.00;1.00;;;;;16.99;51.54;101246.19;5002417;28;45428;-51
2021/10/01 10:49:17;;;;;;;;;1.00;1.00;;;;;17.03;51.77;101242.50;5001517;28;45357;-52
2021/10/01 10:51:57;;;;;;;;;2.25;1.75;;;;;17.10;51.40;101245.81;5002095;28;46210;-52
2021/10/01 10:54:27;;;;;;;;;3.75;2.00;;;;;17.17;51.72;101236.72;5001296;28;45321;-52
2021/10/01 10:57:21;;;;;;;;;1.00;1.00;;;;;17.26;51.65;101224.03;5001353;28;45268;-52
2021/10/01 11:00:04;;;;;;;;;4.50;1.50;;;;;17.36;51.57;101231.66;4990777;28;45252;-51
2021/10/01 11:02:41;;;;;;;;;2.00;2.00;;;;;17.43;51.72;101223.47;5011802;28;45310;-50
2021/10/01 11:05:26;;;;;;;;;2.00;1.00;;;;;17.47;51.70;101219.78;4987592;28;45274;-52
2021/10/01 11:07:58;;;;;;;;;2.00;2.00;;;;;17.50;51.15;101215.22;4999701;28;45247;-52
2021/10/01 11:10:46;;;;;;;;;1.25;1.25;;;;;17.55;51.74;101199.97;5000132;28;45386;-50
2021/10/01 11:13:18;;;;;;;;;1.00;1.00;;;;;17.60;51.42;101198.97;4987337;28;45303;-50
2021/10/01 11:16:09;;;;;;;;;1.00;0.00;;;;;17.61;51.39;101200.66;4999876;28;45329;-49
2021/10/01 11:18:44;;;;;;;;;1.50;0.00;;;;;17.62;51.35;101192.66;4998714;28;45537;-49
2021/10/01 11:21:24;;;;;;;;;3.75;2.00;;;;;17.65;51.20;101202.31;4999928;28;45422;-50
2021/10/01 11:24:08;;;;;;;;;4.25;2.75;;;;;17.67;51.01;101195.13;4999417;28;46330;-51
2021/10/01 11:26:36;;;;;;;;;1.25;1.25;;;;;17.69;51.35;101195.97;4999954;28;45378;-51
2021/10/01 11:29:05;;;;;;;;;2.75;2.00;;;;;17.70;51.26;101190.56;4999639;28;45468;-51
2021/10/01 11:31:41;;;;;;;;;1.50;1.50;;;;;17.74;51.31;101178.03;4999835;28;45472;-52
2021/10/01 11:34:07;;;;;;;;;1.50;1.00;;;;;17.74;51.47;101171.88;4999595;28;45505;-51
2021/10/01 11:36:40;;;;;;;;;1.00;1.00;;;;;17.77;51.13;101167.28;4998283;28;45865;-52
2021/10/01 11:39:11;;;;;;;;;1.75;1.75;;;;;17.81;51.42;101163.59;4999895;28;45401;-50
2021/10/01 11:41:42;;;;;;;;;1.75;1.00;;;;;17.85;51.18;101157.25;4999676;28;45238;-52
2021/10/01 11:44:08;;;;;;;;;0.75;0.75;;;;;17.88;51.22;101158.91;5000280;28;45434;-50
2021/10/01 11:46:40;;;;;;;;;1.00;1.00;;;;;17.93;51.13;101174.69;5003086;28;45199;-51
2021/10/01 11:49:18;;;;;;;;;4.00;2.25;;;;;17.97;51.61;101168.38;5003307;28;45462;-52
2021/10/01 11:52:10;;;;;;;;;1.00;1.00;;;;;17.99;51.36;101158.56;5003085;28;45416;-50
2021/10/01 11:54:36;;;;;;;;;1.75;1.00;;;;;18.03;51.25;101158.34;5000325;28;46381;-52
2021/10/01 11:57:08;;;;;;;;;2.50;2.50;;;;;18.06;51.43;101170.66;4992581;28;45258;-49
2021/10/01 12:00:13;;;;;;;;;1.00;1.00;;;;;18.07;51.37;101144.94;5002732;28;45349;-52
2021/10/01 12:02:41;;;;;;;;;2.75;1.50;;;;;18.07;51.51;101137.81;4961375;28;45441;-51
2021/10/01 12:05:34;;;;;;;;;1.00;0.25;;;;;18.07;51.39;101135.16;4953393;28;47356;-52
2021/10/01 12:08:07;;;;;;;;;1.75;1.00;;;;;18.11;51.51;101128.81;4979656;28;45918;-52
2021/10/01 12:10:39;;;;;;;;;3.50;1.00;;;;;18.17;51.64;101128.56;5003125;28;45311;-50
2021/10/01 12:13:16;;;;;;;;;2.75;1.75;;;;;18.25;51.19;101128.28;5002508;28;45234;-51
2021/10/01 12:16:00;;;;;;;;;4.00;2.00;;;;;18.29;51.45;101129.03;5001249;28;46089;-52
2021/10/01 12:18:42;;;;;;;;;1.00;0.00;;;;;18.38;51.57;101133.06;5001449;28;45453;-47
2021/10/01 12:21:12;;;;;;;;;3.00;1.25;;;;;18.48;51.40;101134.44;5002715;28;45454;-53
2021/10/01 12:23:47;;;;;;;;;3.25;0.25;;;;;18.57;51.45;101130.53;5002420;28;45459;-49
2021/10/01 12:26:27;;;;;;;;;3.00;2.50;;;;;18.69;51.56;101124.69;4990020;28;46229;-53
2021/10/01 12:29:25;;;;;;;;;1.25;1.00;;;;;18.82;51.35;101136.56;5002410;28;45314;-52
2021/10/01 12:31:52;;;;;;;;;1.75;1.75;;;;;18.90;51.02;101125.59;5009965;28;45256;-50
2021/10/01 12:34:37;;;;;;;;;0.75;0.50;;;;;19.01;51.34;101119.81;5002604;28;45286;-52
2021/10/01 12:37:09;;;;;;;;;2.00;2.00;;;;;19.11;51.30;101107.81;5002074;28;46315;-47
2021/10/01 12:39:37;;;;;;;;;1.75;0.00;;;;;19.19;51.35;101112.81;4991859;28;45494;-50
2021/10/01 12:42:08;;;;;;;;;2.00;1.00;;;;;19.30;51.07;101115.00;5000041;28;45369;-48
2021/10/01 12:44:38;;;;;;;;;0.00;0.00;;;;;19.36;50.89;101111.19;5002397;28;45274;-51
2021/10/01 12:47:18;;;;;;;;;2.25;2.25;;;;;19.41;51.17;101098.53;5001960;28;45393;-51
2021/10/01 12:49:55;;;;;;;;;1.00;1.00;;;;;19.48;50.85;101099.97;5001995;28;45262;-47
2021/10/01 12:52:23;;;;;;;;;3.00;2.00;;;;;19.51;51.12;101098.97;5002138;28;45457;-51
2021/10/01 12:54:52;;;;;;;;;1.00;1.00;;;;;19.52;50.97;101100.69;5001913;28;45307;-50
2021/10/01 12:57:20;;;;;;;;;2.00;0.33;;;;;19.52;51.08;101100.69;5017188;28;47203;-48
2021/10/01 13:00:02;;;;;;;;;1.00;1.00;;;;;19.52;51.05;101093.59;5001607;28;45267;-51
2021/10/01 13:02:41;;;;;;;;;0.75;0.00;;;;;19.50;50.65;101082.13;5002204;28;45289;-48
2021/10/01 13:05:15;;;;;;;;;2.75;1.00;;;;;19.51;50.54;101073.19;5001764;28;45460;-51
2021/10/01 13:08:14;;;;;;;;;2.00;0.75;;;;;19.52;50.87;101076.72;5001624;28;45302;-51